This is the latest recevied weather packets stored in our database for station/object IU2PLZ-10. If no packets are shown the sender has not sent any weather packets the latest 10 day(s).
| Time | Temp. | Humidity | Pressure | Rain* | Wind** | Luminosity | Snow |
|---|---|---|---|---|---|---|---|
| 1777893468 | 23.89° C | 43% | 969.6 hPa | - | - | - | - |
| 1777892568 | 23.89° C | 43% | 969.7 hPa | - | - | - | - |
| 1777891668 | 23.89° C | 45% | 969.7 hPa | - | - | - | - |
| 1777890768 | 23.89° C | 45% | 969.8 hPa | - | - | - | - |
| 1777889868 | 23.33° C | 46% | 969.3 hPa | - | - | - | - |
| 1777888067 | 23.89° C | 43% | 970.2 hPa | - | - | - | - |
| 1777887167 | 23.33° C | 43% | 970.2 hPa | - | - | - | - |
| 1777886267 | 22.78° C | 44% | 969.4 hPa | - | - | - | - |
| 1777885367 | 23.89° C | 44% | 970.1 hPa | - | - | - | - |
| 1777884467 | 23.33° C | 46% | 969.9 hPa | - | - | - | - |
| 1777883566 | 22.78° C | 47% | 969.2 hPa | - | - | - | - |
| 1777882666 | 23.33° C | 48% | 969.9 hPa | - | - | - | - |
| 1777881766 | 22.78° C | 51% | 970 hPa | - | - | - | - |
| 1777880866 | 22.78° C | 54% | 970 hPa | - | - | - | - |
| 1777879966 | 21.67° C | 56% | 969.2 hPa | - | - | - | - |
| 1777879066 | 21.11° C | 58% | 969 hPa | - | - | - | - |
| 1777878165 | 20.56° C | 60% | 969.2 hPa | - | - | - | - |
| 1777877265 | 20.56° C | 59% | 969 hPa | - | - | - | - |
| 1777876365 | 21.11° C | 64% | 969.7 hPa | - | - | - | - |
| 1777875465 | 19.44° C | 67% | 969.5 hPa | - | - | - | - |
| 1777874565 | 18.33° C | 67% | 969.6 hPa | - | - | - | - |
| 1777873665 | 15.56° C | 68% | 966.4 hPa | - | - | - | - |
| 1777872765 | 15.56° C | 67% | 967.6 hPa | - | - | - | - |
| 1777871864 | 17.22° C | 70% | 969.7 hPa | - | - | - | - |
| 1777870964 | 16.11° C | 68% | 968.8 hPa | - | - | - | - |
* Rain since midnight (hover to see other rain measurements)
** Current wind speed in m/s (hover to see current wind gust speed)